Time;durP1;ratioP1;P1;durP2;ratioP2;P2;SDS_P1;SDS_P2;PMS_P1;PMS_P2;Temp;Humidity;BMP_temperature;BMP_pressure;BME280_temperature;BME280_humidity;BME280_pressure;Samples;Min_cycle;Max_cycle;Signal;HPM_P1;HPM_P2
2022/09/28 00:01:16;;;;;;;2.17;2.08;;;6.60;99.90;;;;;;5017693;28;20203;-73
2022/09/28 00:03:43;;;;;;;3.72;1.90;;;6.50;99.90;;;;;;4999735;28;20475;-73
2022/09/28 00:06:11;;;;;;;2.20;1.95;;;6.50;99.90;;;;;;5018208;28;20571;-73
2022/09/28 00:08:37;;;;;;;2.28;2.00;;;6.40;99.90;;;;;;5006623;28;20204;-73
2022/09/28 00:11:04;;;;;;;2.88;2.00;;;6.50;99.90;;;;;;5018768;28;20212;-73
2022/09/28 00:13:32;;;;;;;2.47;1.65;;;6.70;99.90;;;;;;5009114;28;20312;-72
2022/09/28 00:16:05;;;;;;;1.70;1.60;;;6.70;99.90;;;;;;5016665;28;20177;-72
2022/09/28 00:18:31;;;;;;;2.78;1.70;;;6.80;99.90;;;;;;5013932;28;20188;-73
2022/09/28 00:21:06;;;;;;;2.28;2.08;;;6.80;99.90;;;;;;5011114;28;20608;-73
2022/09/28 00:23:33;;;;;;;2.05;1.83;;;6.80;99.90;;;;;;5016408;28;20269;-73
2022/09/28 00:26:03;;;;;;;1.92;1.83;;;6.80;99.90;;;;;;5008650;28;20224;-72
2022/09/28 00:28:30;;;;;;;1.70;1.70;;;7.00;99.90;;;;;;5013562;28;20200;-72
2022/09/28 00:30:56;;;;;;;2.33;1.80;;;7.10;99.90;;;;;;5008240;28;20177;-72
2022/09/28 00:33:21;;;;;;;2.35;1.80;;;7.00;99.90;;;;;;5019449;28;20216;-72
2022/09/28 00:35:55;;;;;;;1.55;1.48;;;7.10;99.90;;;;;;5011750;28;20188;-72
2022/09/28 00:38:20;;;;;;;1.70;1.60;;;7.20;99.90;;;;;;4994428;28;20170;-72
2022/09/28 00:40:46;;;;;;;3.40;1.65;;;7.30;99.90;;;;;;5005202;28;20373;-72
2022/09/28 00:43:19;;;;;;;1.38;1.38;;;7.20;99.90;;;;;;4997922;28;20184;-71
2022/09/28 00:45:50;;;;;;;2.05;1.95;;;7.20;99.90;;;;;;5018529;28;20182;-71
2022/09/28 00:48:16;;;;;;;2.42;1.60;;;7.30;99.90;;;;;;5014577;28;20169;-72
2022/09/28 00:50:42;;;;;;;1.58;1.50;;;7.30;99.90;;;;;;5026715;28;20670;-71
2022/09/28 00:53:17;;;;;;;2.03;1.23;;;7.30;99.90;;;;;;5022971;28;20353;-72
2022/09/28 00:55:50;;;;;;;2.55;1.70;;;7.30;99.90;;;;;;5019000;28;20192;-72
2022/09/28 00:58:20;;;;;;;2.42;1.52;;;7.40;99.90;;;;;;5004549;28;20288;-71
2022/09/28 01:00:47;;;;;;;1.80;1.70;;;7.40;99.90;;;;;;5011129;28;20169;-72
2022/09/28 01:03:14;;;;;;;1.45;1.38;;;7.40;99.90;;;;;;5013989;28;20245;-72
2022/09/28 01:05:40;;;;;;;1.77;1.67;;;7.40;99.90;;;;;;5015430;28;20197;-72
2022/09/28 01:08:07;;;;;;;1.65;1.60;;;7.30;99.90;;;;;;5021167;28;20189;-72
2022/09/28 01:10:33;;;;;;;2.47;1.67;;;7.40;99.90;;;;;;5016842;28;20188;-71
2022/09/28 01:12:59;;;;;;;1.73;1.63;;;7.40;99.90;;;;;;5025527;28;20276;-73
2022/09/28 01:15:27;;;;;;;2.13;1.65;;;7.30;99.90;;;;;;5013094;28;20194;-73
2022/09/28 01:18:23;;;;;;;1.70;1.60;;;7.40;99.90;;;;;;5027159;28;20260;-74
2022/09/28 01:21:06;;;;;;;4.88;2.20;;;7.40;99.90;;;;;;5009908;28;20230;-73
2022/09/28 01:23:47;;;;;;;3.30;1.60;;;7.50;99.90;;;;;;5010840;28;20492;-73
2022/09/28 01:26:34;;;;;;;1.73;1.60;;;7.50;99.90;;;;;;5000017;28;20259;-72
2022/09/28 01:29:24;;;;;;;1.17;1.10;;;7.50;99.90;;;;;;5019133;28;20169;-72
2022/09/28 01:31:55;;;;;;;2.03;1.90;;;7.50;99.90;;;;;;5004216;28;20564;-72
2022/09/28 01:34:33;;;;;;;1.73;1.63;;;7.50;99.90;;;;;;5011755;28;20168;-72
2022/09/28 01:37:01;;;;;;;2.15;1.80;;;7.50;99.90;;;;;;5016472;28;20180;-72
2022/09/28 01:39:38;;;;;;;1.88;1.77;;;7.50;99.90;;;;;;5018167;28;20172;-72
2022/09/28 01:42:10;;;;;;;4.80;2.15;;;7.50;99.90;;;;;;5028160;28;20290;-72
2022/09/28 01:44:42;;;;;;;1.75;1.40;;;7.50;99.90;;;;;;5019243;28;20185;-72
2022/09/28 01:47:11;;;;;;;2.75;1.63;;;7.40;99.90;;;;;;5031200;28;20259;-73
2022/09/28 01:49:43;;;;;;;1.85;1.75;;;7.50;99.90;;;;;;5020045;28;20207;-72
2022/09/28 01:52:20;;;;;;;2.55;1.80;;;7.60;99.90;;;;;;5028126;28;20211;-73
2022/09/28 01:55:05;;;;;;;1.92;1.70;;;7.50;99.90;;;;;;5022086;28;20173;-72
2022/09/28 01:57:46;;;;;;;1.70;1.60;;;7.50;99.90;;;;;;5023841;28;20692;-73
2022/09/28 02:00:14;;;;;;;3.53;1.70;;;7.50;99.90;;;;;;5014193;28;20258;-72
2022/09/28 02:02:56;;;;;;;2.13;2.00;;;7.50;99.90;;;;;;5024508;28;20200;-73
2022/09/28 02:05:35;;;;;;;1.67;1.58;;;7.50;99.90;;;;;;5016859;28;20282;-72
2022/09/28 02:08:09;;;;;;;1.48;1.48;;;7.60;99.90;;;;;;5021902;28;20224;-72
2022/09/28 02:10:41;;;;;;;2.85;1.48;;;7.50;99.90;;;;;;5030816;28;20181;-72
2022/09/28 02:13:20;;;;;;;2.30;1.95;;;7.50;99.90;;;;;;5025598;28;20354;-72
2022/09/28 02:15:59;;;;;;;3.53;1.58;;;7.40;99.90;;;;;;5022890;28;20173;-73
2022/09/28 02:18:25;;;;;;;1.70;1.60;;;7.50;99.90;;;;;;5022883;28;20173;-72
2022/09/28 02:21:12;;;;;;;1.80;1.70;;;7.50;99.90;;;;;;5021730;28;20181;-73
2022/09/28 02:23:45;;;;;;;2.28;1.55;;;7.50;99.90;;;;;;5018637;28;20613;-73
2022/09/28 02:26:16;;;;;;;1.90;1.73;;;7.50;99.90;;;;;;5026222;28;20565;-72
2022/09/28 02:28:42;;;;;;;2.13;1.90;;;7.50;99.90;;;;;;5027718;28;20272;-73
2022/09/28 02:31:07;;;;;;;1.63;1.50;;;7.40;99.90;;;;;;5026625;28;20347;-73
2022/09/28 02:33:37;;;;;;;2.53;1.52;;;7.40;99.90;;;;;;5028148;28;20237;-73
2022/09/28 02:36:03;;;;;;;1.73;1.63;;;7.40;99.90;;;;;;5026927;28;20530;-73
2022/09/28 02:38:30;;;;;;;2.03;1.90;;;7.50;99.90;;;;;;5029937;28;20204;-74
2022/09/28 02:41:23;;;;;;;1.73;1.70;;;7.50;99.90;;;;;;5018996;28;20174;-73
2022/09/28 02:44:12;;;;;;;1.58;1.48;;;7.50;99.90;;;;;;5018229;28;20729;-73
2022/09/28 02:47:03;;;;;;;1.90;1.80;;;7.50;99.90;;;;;;5021623;28;20216;-74
2022/09/28 02:49:31;;;;;;;1.80;1.65;;;7.50;99.90;;;;;;5025217;28;20177;-73
2022/09/28 02:52:12;;;;;;;1.70;1.60;;;7.50;99.90;;;;;;5024598;28;20254;-72
2022/09/28 02:54:41;;;;;;;1.80;1.70;;;7.40;99.90;;;;;;5028694;28;20348;-72
2022/09/28 02:57:41;;;;;;;1.73;1.63;;;7.40;99.90;;;;;;5029973;28;20690;-73
2022/09/28 03:00:10;;;;;;;2.50;1.95;;;7.40;99.90;;;;;;5024633;28;20263;-74
2022/09/28 03:02:48;;;;;;;1.67;1.60;;;7.50;99.90;;;;;;5027270;28;20193;-73
2022/09/28 03:05:52;;;;;;;1.88;1.60;;;7.40;99.90;;;;;;5017329;28;20692;-73
2022/09/28 03:08:27;;;;;;;1.63;1.52;;;7.40;99.90;;;;;;5013108;28;20531;-73
2022/09/28 03:11:04;;;;;;;3.90;1.90;;;7.40;99.90;;;;;;5024666;28;20191;-73
2022/09/28 03:13:31;;;;;;;3.50;1.80;;;7.40;99.90;;;;;;5025160;28;20197;-73
2022/09/28 03:16:14;;;;;;;1.30;1.30;;;7.50;99.90;;;;;;5030524;28;20169;-74
2022/09/28 03:18:40;;;;;;;1.65;1.55;;;7.50;99.90;;;;;;5016103;28;20177;-74
2022/09/28 03:21:07;;;;;;;1.70;1.60;;;7.50;99.90;;;;;;5012864;28;20208;-74
2022/09/28 03:23:32;;;;;;;2.67;1.90;;;7.60;99.90;;;;;;5021263;28;20591;-74
2022/09/28 03:25:59;;;;;;;3.90;2.30;;;7.60;99.90;;;;;;5015006;28;20181;-74
2022/09/28 03:28:25;;;;;;;2.35;1.67;;;7.50;99.90;;;;;;5020679;28;20205;-73
2022/09/28 03:30:50;;;;;;;2.22;2.10;;;7.60;99.90;;;;;;5016491;28;20648;-74
2022/09/28 03:33:17;;;;;;;2.33;2.17;;;7.60;99.90;;;;;;5024454;28;20199;-77
2022/09/28 03:35:46;;;;;;;4.68;2.90;;;7.60;99.90;;;;;;5028790;28;20729;-73
2022/09/28 03:38:12;;;;;;;2.60;2.40;;;7.60;99.90;;;;;;5023230;28;20179;-74
2022/09/28 03:40:38;;;;;;;3.35;2.80;;;7.60;99.90;;;;;;5029831;28;20176;-73
2022/09/28 03:43:03;;;;;;;2.20;2.10;;;7.60;99.90;;;;;;5026371;28;20235;-73
2022/09/28 03:45:29;;;;;;;5.65;2.75;;;7.60;99.90;;;;;;5024480;28;20550;-73
2022/09/28 03:47:54;;;;;;;3.38;2.50;;;7.70;99.90;;;;;;5015125;28;20177;-73
2022/09/28 03:50:20;;;;;;;2.55;2.33;;;7.60;99.90;;;;;;5025019;28;20185;-75
2022/09/28 03:52:46;;;;;;;3.25;2.30;;;7.60;99.90;;;;;;5029369;28;20581;-74
2022/09/28 03:55:11;;;;;;;2.40;2.20;;;7.70;99.90;;;;;;5000028;28;20640;-74
2022/09/28 03:57:37;;;;;;;3.75;2.35;;;7.80;99.90;;;;;;5019480;28;20559;-74
2022/09/28 04:00:06;;;;;;;2.67;2.47;;;7.70;99.90;;;;;;5025916;28;20641;-74
2022/09/28 04:02:33;;;;;;;2.50;2.25;;;7.80;99.90;;;;;;5018980;28;20612;-74
2022/09/28 04:04:59;;;;;;;2.20;2.10;;;7.80;99.90;;;;;;5026297;28;20225;-74
2022/09/28 04:07:24;;;;;;;2.40;2.20;;;7.70;99.90;;;;;;5025599;28;20176;-74
2022/09/28 04:09:50;;;;;;;2.17;2.08;;;7.60;99.90;;;;;;5029490;28;20631;-73
2022/09/28 04:12:15;;;;;;;2.78;2.58;;;7.50;99.90;;;;;;5011676;28;20219;-74
2022/09/28 04:14:41;;;;;;;2.75;2.55;;;7.50;99.90;;;;;;5030429;28;20184;-75
2022/09/28 04:17:06;;;;;;;3.10;2.80;;;7.50;99.90;;;;;;5009843;28;20193;-73
2022/09/28 04:19:32;;;;;;;2.72;2.55;;;7.50;99.90;;;;;;4997320;28;20204;-72
2022/09/28 04:21:59;;;;;;;3.00;2.70;;;7.60;99.90;;;;;;4999391;28;20212;-74
2022/09/28 04:24:25;;;;;;;2.30;2.20;;;7.60;99.90;;;;;;5002693;28;20189;-73
2022/09/28 04:26:51;;;;;;;2.25;2.15;;;7.60;99.90;;;;;;5004642;28;20667;-72
2022/09/28 04:29:16;;;;;;;2.33;2.20;;;7.60;99.90;;;;;;5010748;28;20245;-72
2022/09/28 04:31:50;;;;;;;1.85;1.83;;;7.60;99.90;;;;;;5008426;28;20561;-72
2022/09/28 04:34:18;;;;;;;1.85;1.83;;;7.60;99.90;;;;;;5005034;28;20185;-72
2022/09/28 04:36:45;;;;;;;2.58;2.30;;;7.50;99.90;;;;;;5013449;28;20188;-72
2022/09/28 04:39:12;;;;;;;2.28;2.17;;;7.60;99.90;;;;;;5014062;28;20188;-72
2022/09/28 04:41:38;;;;;;;2.47;2.30;;;7.60;99.90;;;;;;5004133;28;20264;-72
2022/09/28 04:44:04;;;;;;;2.58;2.47;;;7.60;99.90;;;;;;4999412;28;20186;-73
2022/09/28 04:46:30;;;;;;;2.65;2.45;;;7.60;99.90;;;;;;5002647;28;20182;-72
2022/09/28 04:48:55;;;;;;;3.00;2.80;;;7.60;99.90;;;;;;5001182;28;20189;-72
2022/09/28 04:51:21;;;;;;;3.47;2.65;;;7.60;99.90;;;;;;5001554;28;20201;-73
2022/09/28 04:53:47;;;;;;;3.30;2.60;;;7.60;99.90;;;;;;5000484;28;20564;-73
2022/09/28 04:56:14;;;;;;;3.10;2.90;;;7.60;99.90;;;;;;5002845;28;20195;-73
2022/09/28 04:58:40;;;;;;;3.08;2.83;;;7.60;99.90;;;;;;5002253;28;20182;-73
2022/09/28 05:01:12;;;;;;;4.15;3.00;;;7.60;99.90;;;;;;5001539;28;20723;-72
2022/09/28 05:03:37;;;;;;;3.45;3.25;;;7.50;99.90;;;;;;4995968;28;20189;-73
2022/09/28 05:06:05;;;;;;;3.53;3.22;;;7.70;99.90;;;;;;4999573;28;20185;-73
2022/09/28 05:08:31;;;;;;;3.10;2.90;;;7.70;99.90;;;;;;5004751;28;20181;-73
2022/09/28 05:11:03;;;;;;;3.20;3.00;;;7.70;99.90;;;;;;5001532;28;20239;-73
2022/09/28 05:13:29;;;;;;;3.17;2.97;;;7.70;99.90;;;;;;4998568;28;20220;-72
2022/09/28 05:15:57;;;;;;;3.33;3.05;;;7.80;99.90;;;;;;5002048;28;20185;-74
2022/09/28 05:18:23;;;;;;;3.80;3.50;;;7.70;99.90;;;;;;4999872;28;20295;-72
2022/09/28 05:20:49;;;;;;;4.18;3.40;;;7.70;99.90;;;;;;4996359;28;20268;-73
2022/09/28 05:23:15;;;;;;;3.85;3.60;;;7.70;99.90;;;;;;5002082;28;20169;-72
2022/09/28 05:25:41;;;;;;;3.38;3.08;;;7.60;99.90;;;;;;5001219;28;20674;-77
2022/09/28 05:28:07;;;;;;;3.90;3.60;;;7.70;99.90;;;;;;5014307;28;20586;-77
2022/09/28 05:30:34;;;;;;;4.20;3.80;;;7.70;99.90;;;;;;5004981;28;20185;-76
2022/09/28 05:32:59;;;;;;;3.00;2.80;;;7.70;99.90;;;;;;5007116;28;20256;-76
2022/09/28 05:35:25;;;;;;;3.50;3.30;;;7.80;99.90;;;;;;5000912;28;20645;-77
2022/09/28 05:37:51;;;;;;;3.78;3.47;;;7.80;99.90;;;;;;5000723;28;20640;-76
2022/09/28 05:40:17;;;;;;;3.97;3.67;;;7.80;99.90;;;;;;5002550;28;20609;-76
2022/09/28 05:42:43;;;;;;;4.72;3.80;;;7.90;99.90;;;;;;5004742;28;20197;-75
2022/09/28 05:45:09;;;;;;;4.10;3.75;;;7.90;99.90;;;;;;5006448;28;20173;-77
2022/09/28 05:47:39;;;;;;;4.38;4.05;;;7.90;99.90;;;;;;5009492;28;20178;-77
2022/09/28 05:50:07;;;;;;;5.22;3.67;;;8.00;99.90;;;;;;5004649;28;20185;-77
2022/09/28 05:52:32;;;;;;;3.70;3.50;;;8.10;99.90;;;;;;5001272;28;20317;-77
2022/09/28 05:54:58;;;;;;;3.75;3.17;;;8.20;99.90;;;;;;5003113;28;20205;-72
2022/09/28 05:57:23;;;;;;;3.50;3.30;;;8.20;99.90;;;;;;4999917;28;20189;-72
2022/09/28 05:59:49;;;;;;;2.90;2.67;;;8.20;99.90;;;;;;5000630;28;20173;-72
2022/09/28 06:02:15;;;;;;;4.93;2.88;;;8.30;99.90;;;;;;5002273;28;20205;-72
2022/09/28 06:04:40;;;;;;;3.78;3.10;;;8.30;99.90;;;;;;5003235;28;20204;-74
2022/09/28 06:07:06;;;;;;;3.45;2.90;;;8.30;99.90;;;;;;5002262;28;20216;-74
2022/09/28 06:09:31;;;;;;;4.72;2.67;;;8.30;99.90;;;;;;4999448;28;20177;-74
2022/09/28 06:11:58;;;;;;;2.95;2.65;;;8.40;99.90;;;;;;4999598;28;20201;-74
2022/09/28 06:14:24;;;;;;;2.30;2.20;;;8.40;99.90;;;;;;5002483;28;20579;-75
2022/09/28 06:16:50;;;;;;;2.65;2.45;;;8.50;99.90;;;;;;5006002;28;20170;-75
2022/09/28 06:19:16;;;;;;;2.65;2.50;;;8.50;99.90;;;;;;5004870;28;20271;-75
2022/09/28 06:21:42;;;;;;;2.33;2.22;;;8.50;99.90;;;;;;5007472;28;20249;-81
2022/09/28 06:24:07;;;;;;;2.60;2.40;;;8.70;99.90;;;;;;5009907;28;20652;-76
2022/09/28 06:26:33;;;;;;;2.88;2.60;;;8.70;99.90;;;;;;5008135;28;20649;-77
2022/09/28 06:29:02;;;;;;;2.78;2.50;;;8.90;99.90;;;;;;4995750;28;20248;-75
2022/09/28 06:31:28;;;;;;;2.83;2.63;;;8.90;99.90;;;;;;4995222;28;20190;-75
2022/09/28 06:33:54;;;;;;;4.82;2.72;;;8.90;99.90;;;;;;4995648;28;20209;-74
2022/09/28 06:36:21;;;;;;;2.40;2.30;;;8.90;99.90;;;;;;5003589;28;20177;-74
2022/09/28 06:38:46;;;;;;;3.90;2.13;;;8.90;99.90;;;;;;5008221;28;21697;-75
2022/09/28 06:41:12;;;;;;;2.80;2.08;;;9.00;99.90;;;;;;5014071;28;20528;-75
2022/09/28 06:43:38;;;;;;;1.95;1.30;;;9.10;99.90;;;;;;5014634;28;20208;-75
2022/09/28 06:46:05;;;;;;;1.88;1.63;;;9.30;99.90;;;;;;5011925;28;20185;-76
2022/09/28 06:48:32;;;;;;;2.70;1.63;;;9.30;99.90;;;;;;5015242;28;20216;-74
2022/09/28 06:50:58;;;;;;;3.38;1.00;;;9.40;99.90;;;;;;5014883;28;20215;-74
2022/09/28 06:53:24;;;;;;;1.58;1.17;;;9.40;99.90;;;;;;5015074;28;20312;-74
2022/09/28 06:55:50;;;;;;;2.85;1.27;;;9.40;99.90;;;;;;5014550;28;20353;-76
2022/09/28 06:58:18;;;;;;;2.22;1.20;;;9.40;99.90;;;;;;5008236;28;20184;-73
2022/09/28 07:00:46;;;;;;;2.50;1.38;;;9.40;99.90;;;;;;5002590;28;20181;-73
2022/09/28 07:03:20;;;;;;;3.50;1.30;;;9.40;99.90;;;;;;5014273;28;20200;-74
2022/09/28 07:05:49;;;;;;;3.30;2.05;;;9.40;99.90;;;;;;5010094;28;20261;-73
2022/09/28 07:08:16;;;;;;;1.30;1.23;;;9.40;99.90;;;;;;5010665;28;20566;-73
2022/09/28 07:10:46;;;;;;;1.17;1.10;;;9.50;99.90;;;;;;5014403;28;20212;-73
2022/09/28 07:13:14;;;;;;;2.50;1.40;;;9.40;99.90;;;;;;5009812;28;20205;-72
2022/09/28 07:15:40;;;;;;;1.40;1.40;;;9.50;99.90;;;;;;5014362;28;20271;-72
2022/09/28 07:18:06;;;;;;;4.53;1.40;;;9.50;99.90;;;;;;5004933;28;20596;-72
2022/09/28 07:20:34;;;;;;;0.77;0.77;;;9.50;99.90;;;;;;5014068;28;20177;-72
2022/09/28 07:23:02;;;;;;;2.05;1.30;;;9.60;99.90;;;;;;5014192;28;20201;-72
2022/09/28 07:25:29;;;;;;;1.45;1.35;;;9.60;99.90;;;;;;5010569;28;20178;-73
2022/09/28 07:27:58;;;;;;;1.23;1.10;;;9.70;99.90;;;;;;5008536;28;20181;-74
2022/09/28 07:30:26;;;;;;;1.73;1.33;;;9.70;99.90;;;;;;4999454;28;20186;-73
2022/09/28 07:32:52;;;;;;;1.30;1.10;;;9.70;99.90;;;;;;5005064;28;20248;-78
2022/09/28 07:35:18;;;;;;;0.75;0.60;;;9.70;99.90;;;;;;5012118;28;20204;-72
2022/09/28 07:37:44;;;;;;;0.98;0.98;;;9.70;99.90;;;;;;5004510;28;20648;-72
2022/09/28 07:42:54;;;;;;;1.08;1.08;;;9.70;99.90;;;;;;5000084;28;21278;-73
2022/09/28 07:45:23;;;;;;;1.60;1.50;;;9.70;99.90;;;;;;5008889;28;20280;-74
2022/09/28 07:47:54;;;;;;;1.25;1.20;;;9.70;99.90;;;;;;5006698;28;20182;-73
2022/09/28 07:50:20;;;;;;;3.03;1.50;;;9.80;99.90;;;;;;5004325;28;20182;-73
2022/09/28 07:52:45;;;;;;;1.73;1.25;;;9.90;99.90;;;;;;5007180;28;20205;-73
2022/09/28 07:55:11;;;;;;;1.23;1.10;;;9.90;99.90;;;;;;5007704;28;20185;-73
2022/09/28 07:57:37;;;;;;;1.40;1.30;;;9.90;99.90;;;;;;5006021;28;20213;-72
2022/09/28 08:00:07;;;;;;;1.20;1.20;;;9.90;99.90;;;;;;5006355;28;20213;-73
2022/09/28 08:02:34;;;;;;;1.50;1.40;;;9.80;99.90;;;;;;5002745;28;20283;-72
2022/09/28 08:05:00;;;;;;;1.50;1.42;;;9.70;99.90;;;;;;5010447;28;20417;-77
2022/09/28 08:07:25;;;;;;;1.20;1.10;;;9.70;99.90;;;;;;5001940;28;20178;-72
2022/09/28 08:09:51;;;;;;;1.40;1.40;;;9.80;99.90;;;;;;5009119;28;20181;-72
2022/09/28 08:12:20;;;;;;;1.38;1.00;;;9.80;99.90;;;;;;5007493;28;20213;-73
2022/09/28 08:14:46;;;;;;;1.70;1.60;;;9.90;99.90;;;;;;5001950;28;20178;-73
2022/09/28 08:17:12;;;;;;;1.45;1.10;;;9.90;99.90;;;;;;5002845;28;20181;-72
2022/09/28 08:22:22;;;;;;;2.80;1.30;;;10.10;99.90;;;;;;5004457;28;20219;-73
2022/09/28 08:24:48;;;;;;;1.73;1.63;;;10.20;99.90;;;;;;5008729;28;20186;-72
2022/09/28 08:27:15;;;;;;;1.58;1.50;;;10.30;99.90;;;;;;5002795;28;20652;-73
2022/09/28 08:29:41;;;;;;;2.00;1.58;;;10.30;99.90;;;;;;5003205;28;20245;-73
2022/09/28 08:32:08;;;;;;;1.67;1.63;;;10.30;99.90;;;;;;5004770;28;20850;-73
2022/09/28 08:34:38;;;;;;;2.45;1.38;;;10.50;99.90;;;;;;5001427;28;20208;-73
2022/09/28 08:37:05;;;;;;;1.75;1.65;;;10.60;99.90;;;;;;5002313;28;20184;-73
2022/09/28 08:39:33;;;;;;;1.65;1.55;;;10.60;99.90;;;;;;5006009;28;20174;-75
2022/09/28 08:42:30;;;;;;;1.77;1.70;;;10.70;99.90;;;;;;5001260;28;20189;-73
2022/09/28 08:45:05;;;;;;;1.55;1.55;;;10.80;99.90;;;;;;5007001;28;20193;-73
2022/09/28 08:51:14;;;;;;;1.77;1.70;;;11.10;99.90;;;;;;5006038;28;20200;-73
2022/09/28 08:53:55;;;;;;;1.50;1.40;;;11.10;99.90;;;;;;5003410;28;20205;-73
2022/09/28 08:56:33;;;;;;;1.60;1.50;;;11.00;99.90;;;;;;5000650;28;20219;-73
2022/09/28 08:59:03;;;;;;;1.52;1.48;;;10.90;99.90;;;;;;4998225;28;20270;-74
2022/09/28 09:01:36;;;;;;;1.40;1.30;;;11.00;99.90;;;;;;4999904;28;20698;-73
2022/09/28 09:04:04;;;;;;;1.77;1.67;;;11.10;99.90;;;;;;5005084;28;20188;-72
2022/09/28 09:06:53;;;;;;;1.75;1.65;;;11.10;99.90;;;;;;5000880;28;20614;-77
2022/09/28 09:09:39;;;;;;;1.33;1.23;;;11.20;99.90;;;;;;5003102;28;20260;-75
2022/09/28 09:12:35;;;;;;;1.73;1.58;;;11.30;99.90;;;;;;5002075;28;20271;-78
2022/09/28 09:15:10;;;;;;;1.55;1.55;;;11.30;99.90;;;;;;5004952;28;20179;-75
2022/09/28 09:17:54;;;;;;;1.42;1.42;;;11.40;99.90;;;;;;4998442;28;20698;-76
2022/09/28 09:20:38;;;;;;;1.80;1.70;;;11.50;99.90;;;;;;5010918;28;20183;-75
2022/09/28 09:23:24;;;;;;;1.60;1.60;;;11.60;99.90;;;;;;5011781;28;20548;-75
2022/09/28 09:25:53;;;;;;;0.70;0.70;;;11.80;99.90;;;;;;5006793;28;20275;-75
2022/09/28 09:28:19;;;;;;;0.88;0.88;;;11.80;99.90;;;;;;5001789;28;20173;-76
2022/09/28 09:31:30;;;;;;;1.15;1.02;;;11.80;99.90;;;;;;5003176;28;20264;-76
2022/09/28 09:34:08;;;;;;;1.90;1.00;;;11.70;99.90;;;;;;5003907;28;20545;-76
2022/09/28 09:36:57;;;;;;;2.15;1.00;;;11.80;99.90;;;;;;5001313;28;20189;-75
2022/09/28 09:39:54;;;;;;;0.82;0.75;;;11.90;99.90;;;;;;5002303;28;20194;-75
2022/09/28 09:42:31;;;;;;;0.80;0.80;;;11.90;99.90;;;;;;5001579;28;20248;-76
2022/09/28 09:45:30;;;;;;;1.02;1.02;;;11.90;99.90;;;;;;5006196;28;20180;-75
2022/09/28 09:48:09;;;;;;;0.85;0.73;;;12.00;99.90;;;;;;5005307;28;20185;-76
2022/09/28 09:50:59;;;;;;;1.23;0.77;;;11.80;99.90;;;;;;5002191;28;20181;-75
2022/09/28 09:53:50;;;;;;;1.38;0.90;;;11.80;99.90;;;;;;4999969;28;20256;-79
2022/09/28 09:56:42;;;;;;;0.80;0.80;;;12.10;99.90;;;;;;5005458;28;20188;-75
2022/09/28 09:59:13;;;;;;;0.90;0.90;;;12.30;99.90;;;;;;5008131;28;20196;-75
2022/09/28 10:01:40;;;;;;;1.83;1.02;;;12.80;99.90;;;;;;5012811;28;20216;-76
2022/09/28 10:04:16;;;;;;;0.80;0.80;;;13.20;99.90;;;;;;5011431;28;20182;-78
2022/09/28 10:06:42;;;;;;;0.75;0.75;;;13.90;99.90;;;;;;5012050;28;20264;-78
2022/09/28 10:09:29;;;;;;;2.95;1.00;;;15.20;99.90;;;;;;5025794;28;20645;-78
2022/09/28 10:11:54;;;;;;;0.80;0.77;;;16.40;99.90;;;;;;5029239;28;20224;-79
2022/09/28 10:14:23;;;;;;;0.80;0.80;;;17.10;99.90;;;;;;5024061;28;20644;-78
2022/09/28 10:16:52;;;;;;;1.10;0.82;;;17.30;99.90;;;;;;5028536;28;20234;-78
2022/09/28 10:19:20;;;;;;;1.02;0.80;;;17.80;99.90;;;;;;5016384;28;20207;-76
2022/09/28 10:21:50;;;;;;;1.60;0.95;;;18.00;99.90;;;;;;5022801;28;20270;-76
2022/09/28 10:24:27;;;;;;;1.45;1.00;;;17.80;99.90;;;;;;5023109;28;20230;-77
2022/09/28 10:26:54;;;;;;;0.50;0.50;;;17.60;99.90;;;;;;5024449;28;20239;-76
2022/09/28 10:29:23;;;;;;;0.70;0.70;;;17.90;99.90;;;;;;5022476;28;20188;-76
2022/09/28 10:31:51;;;;;;;0.95;0.68;;;18.70;99.90;;;;;;5023580;28;20208;-77
2022/09/28 10:34:23;;;;;;;0.80;0.80;;;20.10;99.90;;;;;;5037273;28;20236;-78
2022/09/28 10:36:54;;;;;;;0.63;0.63;;;20.70;99.90;;;;;;5024361;28;20186;-79
2022/09/28 10:39:29;;;;;;;1.77;0.75;;;20.90;99.90;;;;;;5027878;28;20184;-77
2022/09/28 10:41:57;;;;;;;0.60;0.60;;;20.20;99.90;;;;;;5027001;28;20246;-76
2022/09/28 10:44:24;;;;;;;1.00;0.70;;;19.80;99.90;;;;;;5026356;28;20171;-76
2022/09/28 10:47:01;;;;;;;0.68;0.68;;;19.20;99.90;;;;;;5024955;28;20222;-75
2022/09/28 10:49:39;;;;;;;0.98;0.98;;;19.60;99.90;;;;;;5029006;28;20169;-77
2022/09/28 10:52:16;;;;;;;0.70;0.70;;;19.60;99.90;;;;;;5029621;28;20223;-76
2022/09/28 10:54:52;;;;;;;1.35;1.20;;;19.20;99.90;;;;;;5024181;28;20180;-77
2022/09/28 10:57:47;;;;;;;2.13;0.95;;;18.50;99.90;;;;;;5025784;28;20577;-76
2022/09/28 11:00:32;;;;;;;0.93;0.90;;;17.90;99.90;;;;;;5011632;28;20188;-76
2022/09/28 11:02:59;;;;;;;1.40;0.95;;;17.70;99.90;;;;;;5010696;28;20244;-76
2022/09/28 11:05:26;;;;;;;0.60;0.60;;;17.80;99.90;;;;;;5013186;28;20591;-75
2022/09/28 11:07:54;;;;;;;0.65;0.65;;;18.00;99.90;;;;;;5014381;28;20174;-76
2022/09/28 11:10:29;;;;;;;0.77;0.77;;;18.30;99.90;;;;;;5016123;28;20185;-76
2022/09/28 11:12:56;;;;;;;0.85;0.85;;;19.00;99.90;;;;;;5013503;28;20205;-76
2022/09/28 11:15:30;;;;;;;0.77;0.77;;;18.70;99.90;;;;;;5014294;28;20551;-76
2022/09/28 11:17:55;;;;;;;1.25;1.15;;;17.90;99.90;;;;;;5012272;28;20280;-78
2022/09/28 11:20:24;;;;;;;1.02;1.02;;;17.20;99.90;;;;;;5009862;28;20268;-77
2022/09/28 11:22:58;;;;;;;0.98;0.98;;;16.70;99.90;;;;;;5012110;28;20207;-77
2022/09/28 11:25:26;;;;;;;0.93;0.93;;;16.50;99.90;;;;;;5010159;28;20264;-77
2022/09/28 11:27:52;;;;;;;1.00;0.90;;;16.30;99.90;;;;;;5011779;28;20231;-77
2022/09/28 11:30:25;;;;;;;0.98;0.90;;;15.80;99.90;;;;;;5012230;28;20185;-77
2022/09/28 11:32:53;;;;;;;1.00;1.00;;;15.50;99.90;;;;;;5009465;28;20206;-76
2022/09/28 11:35:35;;;;;;;0.93;0.80;;;15.50;99.90;;;;;;5024453;28;20528;-78
2022/09/28 11:38:07;;;;;;;2.95;1.30;;;15.50;99.90;;;;;;5014870;28;20182;-78
2022/09/28 11:40:48;;;;;;;1.92;1.45;;;15.80;99.90;;;;;;5011939;28;20181;-77
2022/09/28 11:43:16;;;;;;;1.42;1.35;;;15.90;99.90;;;;;;5014112;28;20189;-79
2022/09/28 11:46:10;;;;;;;3.58;1.33;;;16.00;99.90;;;;;;5013164;28;20746;-80
2022/09/28 11:48:46;;;;;;;1.52;1.17;;;16.20;99.90;;;;;;5006920;28;20178;-78
2022/09/28 11:51:20;;;;;;;0.70;0.70;;;16.60;99.90;;;;;;5015629;28;20251;-78
2022/09/28 11:54:13;;;;;;;1.65;1.15;;;16.70;99.90;;;;;;5011631;28;20204;-79
2022/09/28 11:56:42;;;;;;;1.10;1.00;;;16.70;99.90;;;;;;5008228;28;20288;-78
2022/09/28 11:59:20;;;;;;;1.00;0.95;;;17.10;99.90;;;;;;5011926;28;20223;-79
2022/09/28 12:01:51;;;;;;;1.20;0.50;;;17.40;99.90;;;;;;5013079;28;20753;-78
2022/09/28 12:04:24;;;;;;;1.00;0.93;;;17.60;99.90;;;;;;5015662;28;20173;-78
2022/09/28 12:07:22;;;;;;;1.30;0.82;;;17.50;99.90;;;;;;5018313;28;20173;-80
2022/09/28 12:10:02;;;;;;;0.80;0.80;;;17.60;99.90;;;;;;5010509;28;20189;-79
2022/09/28 12:12:55;;;;;;;0.80;0.80;;;17.80;99.90;;;;;;5016856;28;20244;-79
2022/09/28 12:15:25;;;;;;;1.60;0.90;;;17.90;99.90;;;;;;5021991;28;20182;-78
2022/09/28 12:18:01;;;;;;;0.70;0.70;;;18.10;99.90;;;;;;5011509;28;20234;-78
2022/09/28 12:20:33;;;;;;;1.02;0.95;;;18.20;99.90;;;;;;5008108;28;20378;-82
2022/09/28 12:22:58;;;;;;;0.90;0.90;;;18.30;99.90;;;;;;5012086;28;20213;-74
2022/09/28 12:25:27;;;;;;;1.95;0.80;;;18.50;99.90;;;;;;5006236;28;20271;-74
2022/09/28 12:28:02;;;;;;;0.75;0.75;;;18.70;99.90;;;;;;5002186;28;20636;-73
2022/09/28 12:30:34;;;;;;;0.50;0.50;;;18.80;99.90;;;;;;5019442;28;20693;-72
2022/09/28 12:33:10;;;;;;;1.65;0.73;;;18.60;99.90;;;;;;5000723;28;20212;-75
2022/09/28 12:36:05;;;;;;;1.48;0.73;;;18.30;99.90;;;;;;5008938;28;20231;-75
2022/09/28 12:38:38;;;;;;;1.67;0.90;;;17.80;99.90;;;;;;5008744;28;20526;-74
2022/09/28 12:41:23;;;;;;;0.50;0.50;;;17.50;99.90;;;;;;5008923;28;20705;-74
2022/09/28 12:43:57;;;;;;;1.33;0.80;;;17.60;99.90;;;;;;5025268;28;20275;-74
2022/09/28 12:46:32;;;;;;;0.90;0.90;;;17.70;99.90;;;;;;5020336;28;20179;-75
2022/09/28 12:49:22;;;;;;;0.68;0.60;;;17.50;99.90;;;;;;5014215;28;20216;-74
2022/09/28 12:52:22;;;;;;;0.90;0.90;;;17.70;99.90;;;;;;5008980;28;20193;-73
2022/09/28 12:55:11;;;;;;;0.90;0.90;;;17.80;99.90;;;;;;5005521;28;20675;-74
2022/09/28 12:58:00;;;;;;;1.45;1.35;;;17.80;99.90;;;;;;5011515;28;20245;-73
2022/09/28 13:00:36;;;;;;;1.90;1.20;;;17.70;99.90;;;;;;5003697;28;20201;-76
2022/09/28 13:03:21;;;;;;;0.55;0.55;;;17.30;99.90;;;;;;5009477;28;20201;-74
2022/09/28 13:05:55;;;;;;;1.55;1.17;;;16.90;99.90;;;;;;5011220;28;20594;-80
2022/09/28 13:08:55;;;;;;;1.23;1.05;;;16.50;99.90;;;;;;5012329;28;20181;-78
2022/09/28 13:11:40;;;;;;;0.77;0.77;;;16.20;99.90;;;;;;5022410;28;20507;-77
2022/09/28 13:14:24;;;;;;;1.40;1.05;;;16.00;99.90;;;;;;5011093;28;20205;-75
2022/09/28 13:17:19;;;;;;;1.50;1.40;;;15.80;99.90;;;;;;5004595;28;20560;-74
2022/09/28 13:19:58;;;;;;;1.75;1.50;;;15.70;99.90;;;;;;5022295;28;20555;-74
2022/09/28 13:22:49;;;;;;;0.98;0.98;;;15.90;99.90;;;;;;5000600;28;20695;-74
2022/09/28 13:25:19;;;;;;;1.23;1.13;;;16.50;99.90;;;;;;5028560;28;20186;-74
2022/09/28 13:27:53;;;;;;;1.00;1.00;;;17.00;99.90;;;;;;5010619;28;20707;-75